Latest Coastal Weather Observations for Point Perpendicular

IDN60701

Issued at 9:01 pm EST Wednesday 5 August 2020 (issued every 10 minutes, with the page automatically refreshed every 10 minutes)

About coastal observations | Map of coastal stations | Coastal observations for NSW | Marine services | Other Formats
Station Details ID: 068151 Name: POINT PERPENDICULAR AWS Lat: -35.09 Lon: 150.80 Height: 85.0 m
Data from the previous 72 hours. | See also: Recent months at Point Perpendicular
Date/Time
EST
Wind Sea
Height
m
Swell Vis
km
Cloud Weather Temp
°C
Press
hPa
Rain since
9am
mm
Dir  Spd
kts
Gust
kts
Height
m
Period
s
Dir
05/08:30pm W 6 12 - - - - - - - 10.7 1012.8 0.0
05/08:00pm W 7 12 - - - - - - - 10.6 1012.6 0.0
05/07:30pm W 7 13 - - - - - - - 10.5 1012.3 0.0
05/07:00pm WNW 8 15 - - - - - - - 10.6 1012.0 0.0
05/06:30pm WNW 7 12 - - - - - - - 11.3 1011.5 0.0
05/06:00pm W 6 11 - - - - - - - 12.0 1011.0 0.0
05/05:30pm WNW 7 12 - - - - - - - 12.4 1010.7 0.0
05/05:00pm W 6 11 - - - - - - - 12.6 1010.5 0.0
05/04:30pm WNW 8 15 - - - - - - - 13.0 1010.1 0.0
05/04:00pm WNW 9 17 - - - - - - - 13.3 1009.9 0.0
05/03:30pm WNW 7 13 - - - - - - - 13.1 1009.6 0.0
05/03:00pm WNW 8 16 - - - - - - - 13.1 1009.6 0.0
05/02:30pm WNW 9 16 - - - - - - - 13.2 1009.9 0.0
05/02:00pm WNW 9 17 - - - - - - - 13.0 1009.9 0.0
05/01:30pm WNW 8 18 - - - - - - - 13.0 1010.0 0.0
05/01:00pm WNW 11 19 - - - - - - - 12.6 1010.2 0.0
05/12:30pm WNW 9 19 - - - - - - - 12.3 1010.2 0.0
05/12:00pm WNW 9 21 - - - - - - - 12.1 1010.1 0.0
05/11:30am WNW 8 15 - - - - - - - 11.5 1010.5 0.0
05/11:00am WNW 8 18 - - - - - - - 10.9 1010.8 0.0
05/10:30am W 7 14 - - - - - - - 10.4 1010.8 0.0
05/10:00am WNW 7 18 - - - - - - - 10.0 1010.4 0.0
05/09:30am WNW 9 16 - - - - - - - 9.6 1010.4 0.0
05/09:00am WNW 9 23 - - - - - - - 9.0 1010.1 0.0
05/08:30am WNW 7 16 - - - - - - - 8.4 1010.1 0.0
05/08:00am WNW 8 15 - - - - - - - 8.2 1010.1 0.0
05/07:30am WNW 7 11 - - - - - - - 7.8 1010.0 0.0
05/07:00am WNW 9 26 - - - - - - - 7.4 1010.1 0.0
05/06:30am WNW 12 20 - - - - - - - 7.6 1009.6 0.0
05/06:00am NW 14 26 - - - - - - - 7.6 1009.3 0.0
05/05:52am WNW 15 26 - - - - - - - 7.7 1009.2 0.0
05/05:30am WNW 13 22 - - - - - - - 8.1 1008.8 0.0
05/05:00am WNW 13 23 - - - - - - - 8.2 1009.1 0.0
05/04:39am NW 15 25 - - - - - - - 8.2 1008.9 0.0
05/04:30am NW 15 24 - - - - - - - 8.0 1009.0 0.0
05/04:00am WNW 15 31 - - - - - - - 8.5 1009.3 0.0
05/03:46am NW 15 26 - - - - - - - 8.3 1009.5 0.0
05/03:30am WNW 13 24 - - - - - - - 8.5 1009.8 0.0
05/03:00am NW 9 14 - - - - - - - 8.2 1010.9 0.0
05/02:30am NW 9 14 - - - - - - - 8.3 1011.5 0.0
05/02:00am WNW 8 13 - - - - - - - 8.5 1011.8 0.0
05/01:30am WNW 7 10 - - - - - - - 8.4 1012.0 0.0
05/01:00am WNW 6 12 - - - - - - - 8.5 1012.0 0.0
05/12:30am WNW 6 10 - - - - - - - 8.8 1012.1 0.0
05/12:00am WNW 6 10 - - - - - - - 8.8 1012.2 0.0
 
Date/Time
EST
Wind Sea
Height
m
Swell Vis
km
Cloud Weather Temp
°C
Press
hPa
Rain since
9am
mm
Dir  Spd
kts
Gust
kts
Height
m
Period
s
Dir
04/11:30pm WNW 4 12 - - - - - - - 9.0 1012.4 0.0
04/11:00pm W 5 8 - - - - - - - 9.0 1012.4 0.0
04/10:30pm WNW 6 10 - - - - - - - 9.1 1012.7 0.0
04/10:00pm WNW 7 15 - - - - - - - 9.4 1012.4 0.0
04/09:30pm WNW 7 12 - - - - - - - 9.8 1012.2 0.0
04/09:00pm WNW 7 13 - - - - - - - 10.1 1012.1 0.0
04/08:30pm WNW 7 12 - - - - - - - 10.5 1012.2 0.0
04/08:00pm WNW 6 15 - - - - - - - 11.1 1012.0 0.0
04/07:30pm W 4 11 - - - - - - - 11.6 1011.9 0.0
04/07:00pm WNW 5 9 - - - - - - - 12.2 1011.1 0.0
04/06:30pm W 7 13 - - - - - - - 12.6 1010.3 0.0
04/06:00pm WNW 5 8 - - - - - - - 13.1 1010.2 0.0
04/05:30pm W 6 11 - - - - - - - 13.5 1010.2 0.0
04/05:00pm W 6 11 - - - - - - - 14.2 1009.5 0.0
04/04:30pm W 5 9 - - - - - - - 15.0 1008.8 0.0
04/04:00pm W 5 10 - - - - - - - 16.0 1008.3 0.0
04/03:30pm WNW 7 14 - - - - - - - 16.3 1008.0 0.0
04/03:00pm WNW 9 23 - - - - - - - 16.8 1007.9 0.0
04/02:30pm WNW 8 21 - - - - - - - 16.7 1007.3 0.0
04/02:00pm WNW 10 21 - - - - - - - 17.3 1007.4 0.0
04/01:30pm W 7 13 - - - - - - - 18.0 1007.4 0.0
04/01:00pm WNW 9 17 - - - - - - - 18.6 1007.5 0.0
04/12:30pm WNW 8 16 - - - - - - - 18.7 1007.8 0.0
04/12:00pm N 4 8 - - - - - - - 19.0 1008.2 0.0
04/11:30am N 7 11 - - - - - - - 17.3 1008.7 0.0
04/11:00am N 8 12 - - - - - - - 17.5 1009.0 0.0
04/10:30am N 6 9 - - - - - - - 16.8 1009.4 0.0
04/10:00am NNW 8 12 - - - - - - - 15.9 1009.7 0.0
04/09:30am NNW 8 12 - - - - - - - 15.1 1009.9 0.0
04/09:00am NNW 6 10 - - - - - - - 14.8 1010.4 0.0
04/08:30am NNW 8 12 - - - - - - - 14.7 1010.5 0.0
04/08:00am N 6 8 - - - - - - - 14.8 1010.6 0.0
04/07:30am N 5 6 - - - - - - - 13.6 1010.6 0.0
04/07:00am NNW 8 11 - - - - - - - 13.2 1010.6 0.0
04/06:30am NNW 8 10 - - - - - - - 12.9 1010.7 0.0
04/06:00am NNW 9 12 - - - - - - - 12.8 1010.5 0.0
04/05:30am NW 9 13 - - - - - - - 12.7 1010.5 0.0
04/05:00am NNW 11 15 - - - - - - - 12.8 1010.5 0.0
04/04:30am NW 9 13 - - - - - - - 13.0 1010.5 0.0
04/04:00am NW 11 17 - - - - - - - 13.3 1010.7 0.0
04/03:30am NW 9 14 - - - - - - - 13.5 1010.7 0.0
04/03:00am NW 12 16 - - - - - - - 13.6 1011.2 0.0
04/02:30am NNW 8 12 - - - - - - - 13.3 1011.3 0.0
04/02:00am NNW 11 15 - - - - - - - 13.9 1011.7 0.0
04/01:30am NNW 9 11 - - - - - - - 13.4 1012.0 0.0
04/01:00am NNW 9 10 - - - - - - - 13.7 1012.6 0.0
04/12:30am NNW 8 9 - - - - - - - 13.7 1012.7 0.0
04/12:00am NW 12 14 - - - - - - - 14.0 1012.8 0.0
 
Date/Time
EST
Wind Sea
Height
m
Swell Vis
km
Cloud Weather Temp
°C
Press
hPa
Rain since
9am
mm
Dir  Spd
kts
Gust
kts
Height
m
Period
s
Dir
03/11:30pm NNW 5 6 - - - - - - - 13.8 1013.0 0.0
03/11:00pm NW 9 10 - - - - - - - 14.2 1013.3 0.0
03/10:30pm NW 9 12 - - - - - - - 14.6 1013.2 0.0
03/10:00pm NW 9 13 - - - - - - - 14.9 1013.5 0.0
03/09:30pm WNW 8 12 - - - - - - - 14.9 1013.5 0.0
03/09:00pm WNW 8 11 - - - - - - - 15.1 1013.5 0.0
03/08:30pm WNW 5 8 - - - - - - - 15.4 1013.8 0.0
03/08:00pm WNW 6 10 - - - - - - - 15.6 1013.8 0.0
03/07:30pm WNW 5 8 - - - - - - - 15.6 1013.8 0.0
03/07:00pm NW 9 12 - - - - - - - 15.7 1013.9 0.0
03/06:30pm NW 10 12 - - - - - - - 16.2 1013.9 0.0
03/06:00pm NW 10 11 - - - - - - - 16.4 1013.9 0.0
03/05:30pm NW 8 12 - - - - - - - 16.7 1013.8 0.0
03/05:00pm NW 8 10 - - - - - - - 17.4 1013.8 0.0
03/04:30pm NW 8 11 - - - - - - - 18.5 1013.7 0.0
03/04:00pm WNW 5 11 - - - - - - - 18.9 1013.5 0.0
03/03:30pm NW 7 12 - - - - - - - 19.2 1013.5 0.0
03/03:00pm WNW 7 13 - - - - - - - 19.6 1013.5 0.0
03/02:30pm NW 10 16 - - - - - - - 20.0 1013.8 0.0
03/02:00pm NW 11 16 - - - - - - - 20.2 1014.0 0.0
03/01:30pm NW 11 16 - - - - - - - 19.5 1014.2 0.0
03/01:00pm NW 11 16 - - - - - - - 19.1 1014.6 0.0
03/12:30pm NNW 11 18 - - - - - - - 18.4 1015.0 0.0
03/12:00pm NW 11 16 - - - - - - - 17.4 1015.7 0.0
03/11:30am NW 9 16 - - - - - - - 17.4 1016.3 0.0
03/11:00am NW 11 15 - - - - - - - 16.3 1017.0 0.0
03/10:30am NW 12 16 - - - - - - - 15.0 1017.3 0.0
03/10:00am NW 11 15 - - - - - - - 14.5 1017.6 0.0
03/09:30am NW 12 16 - - - - - - - 13.0 1017.9 0.0
03/09:00am NW 10 15 - - - - - - - 12.3 1018.2 0.0
03/08:30am NW 12 16 - - - - - - - 11.4 1018.2 0.0
03/08:00am NW 12 16 - - - - - - - 10.7 1018.2 0.0
03/07:30am NW 11 15 - - - - - - - 10.2 1018.4 0.0
03/07:00am NW 11 13 - - - - - - - 9.6 1018.4 0.0
03/06:30am NW 10 12 - - - - - - - 9.5 1018.3 0.0
03/06:00am NW 9 11 - - - - - - - 9.5 1018.4 0.0
03/05:30am NW 7 10 - - - - - - - 9.6 1018.3 0.0
03/05:00am NW 8 10 - - - - - - - 9.6 1018.2 0.0
03/04:30am NNW 8 10 - - - - - - - 10.0 1018.7 0.0
03/04:00am NNW 9 10 - - - - - - - 10.2 1018.7 0.0
03/03:30am NNW 8 10 - - - - - - - 10.1 1019.0 0.0
03/03:00am NNW 8 11 - - - - - - - 10.1 1019.3 0.0
03/02:30am NNW 8 10 - - - - - - - 10.1 1019.6 0.0
03/02:00am NNW 7 8 - - - - - - - 10.0 1020.0 0.0
03/01:30am NW 8 10 - - - - - - - 10.4 1020.4 0.0
03/01:00am NNW 8 10 - - - - - - - 10.6 1020.8 0.0
03/12:30am NNW 8 10 - - - - - - - 10.8 1021.2 0.0
03/12:00am NNW 7 9 - - - - - - - 10.7 1021.5 0.0
 
Date/Time
EST
Wind Sea
Height
m
Swell Vis
km
Cloud Weather Temp
°C
Press
hPa
Rain since
9am
mm
Dir  Spd
kts
Gust
kts
Height
m
Period
s
Dir
02/11:30pm NNW 6 8 - - - - - - - 10.6 1021.9 0.0
02/11:00pm NNW 6 7 - - - - - - - 10.5 1022.2 0.0
02/10:30pm NW 5 6 - - - - - - - 11.0 1022.4 0.0
02/10:00pm WNW 2 3 - - - - - - - 11.3 1022.5 0.0
02/09:30pm NW 5 5 - - - - - - - 11.7 1022.6 0.0

Other formats

Comma delimited format used in spreadsheet applications
http://www.bom.gov.au/fwo/IDN60701/IDN60701.95940.axf

JavaScript Object Notation format (JSON) in row-major order
http://www.bom.gov.au/fwo/IDN60701/IDN60701.95940.json

Data quality

Most of these data are generated automatically and are frequently updated. Quality checks on data are not normally performed. It is possible for incorrect values to appear. Refer to information at About Latest Weather Observations and please check the disclaimer before using these data.